Waco, Ohio
Current Conditions -  °F | °C
As of 6:33 PM on Wednesday 22 Oct 2014 (Local Time) from KCAK Reporting Station
Overcast Overcast  
Wind Chill: 44°   Ceiling: 3700
Heat Index: 48°   Visibility: 10mi
Dew Point: 41°   Wind: 9mph
Humidity: 76%   Direction: 350°N
Pressure: 30.22"   Gusts: NA
Location:  40.7612°N, 81.35°W
Report Text: KCAK 222233Z 35008KT 10SM FEW027 OVC037 09/05 A3022 RMK AO2 $
Loading
Personal Weather Stations






























Interactive Weather Map
Tropical Storm Tracking
New forecast layout! Learn more

10-Day Weather Forecast

Advertisements
Track Severe Weather on mobile